Powersville, Georgia
Current Conditions -  °F | °C
As of 7:53 PM on Monday 26 Jan 2015 (Local Time) from KMCN Reporting Station
Clear Clear  
Wind Chill:   Ceiling: Unl
Heat Index:   Visibility: 10mi
Dew Point: -2°   Wind: 6mph
Humidity: 73%   Direction: 300°WNW
Pressure: 29.94"   Gusts: NA
Location:  32.6425°N, 83.775°W
Report Text: KMCN 270053Z 30005KT 10SM CLR 03/M02 A2994 RMK AO2 SLP140 T00281017
Loading
Personal Weather Stations






























Interactive Weather Map New forecast layout! Learn more

10-Day Weather Forecast

Advertisements
Track Severe Weather on mobile